Time;durP1;ratioP1;P1;durP2;ratioP2;P2;SDS_P1;SDS_P2;PMS_P1;PMS_P2;Temp;Humidity;BMP_temperature;BMP_pressure;BME280_temperature;BME280_humidity;BME280_pressure;Samples;Min_cycle;Max_cycle;Signal;HPM_P1;HPM_P2
2022/12/09 00:04:17;;;;;;;;;;;0.40;99.90;;;-0.61;100.00;94637.53;10498568;28;2067;-67
2022/12/09 00:09:20;;;;;;;;;;;0.50;99.90;;;-0.64;100.00;94623.97;10509246;28;1899;-67
2022/12/09 00:14:24;;;;;;;;;;;0.60;99.90;;;-0.76;100.00;94628.47;10505929;28;2051;-68
2022/12/09 00:19:26;;;;;;;;;;;0.40;99.90;;;-0.87;100.00;94617.69;10504029;28;2146;-69
2022/12/09 00:24:29;;;;;;;;;;;1.50;99.90;;;-0.95;100.00;94625.16;10510003;28;2104;-68
2022/12/09 00:29:31;;;;;;;;;;;0.30;99.90;;;-1.01;100.00;94616.34;10527185;28;2040;-67
2022/12/09 00:34:34;;;;;;;;;;;0.20;99.90;;;-0.93;100.00;94607.28;10513913;28;2028;-67
2022/12/09 00:39:37;;;;;;;;;;;0.20;99.90;;;-1.02;100.00;94606.00;10508319;28;2064;-67
2022/12/09 00:44:40;;;;;;;;;;;0.20;99.90;;;-1.25;100.00;94583.09;10505431;28;2010;-67
2022/12/09 00:49:49;;;;;;;;;;;0.10;99.90;;;-1.47;100.00;94580.19;10514969;28;1966;-66
2022/12/09 00:54:52;;;;;;;;;;;0.80;99.90;;;-1.61;100.00;94581.44;10503759;28;2131;-67
2022/12/09 00:59:55;;;;;;;;;;;;;;;-1.69;100.00;94580.75;10506958;28;2066;-68
2022/12/09 01:04:58;;;;;;;;;;;-0.50;99.90;;;-1.80;100.00;94567.53;10509642;28;2081;-68
2022/12/09 01:10:01;;;;;;;;;;;-0.50;99.90;;;-1.73;100.00;94566.41;10507235;28;2073;-67
2022/12/09 01:15:04;;;;;;;;;;;-0.50;99.90;;;-1.72;100.00;94560.13;10504892;28;2106;-66
2022/12/09 01:20:08;;;;;;;;;;;-0.50;99.90;;;-1.90;100.00;94570.72;10500579;28;2020;-65
2022/12/09 01:25:11;;;;;;;;;;;-0.60;99.90;;;-1.99;100.00;94578.13;10509193;28;2267;-67
2022/12/09 01:30:14;;;;;;;;;;;-0.60;99.90;;;-1.89;100.00;94567.06;10513391;28;2013;-67
2022/12/09 01:35:17;;;;;;;;;;;-0.30;99.90;;;-1.97;100.00;94560.31;10514290;28;2043;-67
2022/12/09 01:40:20;;;;;;;;;;;-0.70;99.90;;;-1.98;100.00;94571.03;10506083;28;2042;-66
2022/12/09 01:45:29;;;;;;;;;;;-0.70;99.90;;;-2.05;100.00;94554.53;10502393;28;2125;-69
2022/12/09 01:50:32;;;;;;;;;;;-0.60;99.90;;;-1.96;100.00;94554.00;10497784;28;2009;-68
2022/12/09 01:55:35;;;;;;;;;;;-0.70;99.90;;;-2.00;100.00;94546.75;10502102;28;2148;-66
2022/12/09 02:00:37;;;;;;;;;;;-0.70;99.90;;;-2.02;100.00;94523.31;10503302;28;2040;-67
2022/12/09 02:05:41;;;;;;;;;;;-0.70;99.90;;;-2.24;100.00;94530.91;10501591;28;2107;-68
2022/12/09 02:10:43;;;;;;;;;;;-0.90;99.90;;;-2.25;100.00;94529.28;10497554;28;2038;-66
2022/12/09 02:15:46;;;;;;;;;;;-0.90;99.90;;;-2.23;100.00;94532.53;10494665;28;1990;-66
2022/12/09 02:20:49;;;;;;;;;;;-0.90;99.90;;;-2.22;100.00;94507.00;10497596;28;2058;-67
2022/12/09 02:25:52;;;;;;;;;;;-1.00;99.90;;;-2.17;100.00;94507.09;10495697;28;2054;-67
2022/12/09 02:30:55;;;;;;;;;;;-1.00;99.90;;;-2.18;100.00;94497.59;10513382;28;2010;-67
2022/12/09 02:35:57;;;;;;;;;;;-1.00;99.90;;;-2.10;100.00;94491.22;10494234;28;2282;-68
2022/12/09 02:41:00;;;;;;;;;;;-1.00;99.90;;;-2.04;100.00;94503.47;10503268;28;2024;-71
2022/12/09 02:46:03;;;;;;;;;;;-0.90;99.90;;;-1.88;100.00;94509.94;10497109;28;1967;-67
2022/12/09 02:51:06;;;;;;;;;;;-0.90;99.90;;;-1.76;100.00;94492.31;10500402;28;2055;-75
2022/12/09 02:56:09;;;;;;;;;;;-0.70;99.90;;;-1.67;100.00;94481.19;10505665;28;2045;-75
2022/12/09 03:01:12;;;;;;;;;;;-0.60;99.90;;;-1.73;100.00;94481.28;10506078;28;1930;-66
2022/12/09 03:06:15;;;;;;;;;;;-0.60;99.90;;;-1.91;100.00;94466.38;10501110;28;2199;-65
2022/12/09 03:11:18;;;;;;;;;;;-0.60;99.90;;;-2.02;100.00;94461.94;10510004;28;2155;-68
2022/12/09 03:16:20;;;;;;;;;;;-0.80;99.90;;;-2.14;100.00;94446.13;10505693;28;2138;-65
2022/12/09 03:21:24;;;;;;;;;;;-0.90;99.90;;;-2.27;100.00;94457.66;10504686;28;2068;-66
2022/12/09 03:26:27;;;;;;;;;;;-0.90;99.90;;;-2.24;100.00;94451.13;10510415;28;2007;-66
2022/12/09 03:31:30;;;;;;;;;;;-1.00;99.90;;;-2.25;100.00;94465.31;10509162;28;2077;-66
2022/12/09 03:36:32;;;;;;;;;;;-1.00;99.90;;;-2.28;100.00;94456.06;10507400;28;2138;-67
2022/12/09 03:41:39;;;;;;;;;;;-0.40;99.90;;;-2.35;100.00;94455.34;10517916;28;2093;-66
2022/12/09 03:46:42;;;;;;;;;;;-1.00;99.90;;;-2.14;100.00;94445.31;10492452;28;2105;-67
2022/12/09 03:51:45;;;;;;;;;;;-1.00;99.90;;;-2.18;100.00;94429.97;10511625;28;2136;-69
2022/12/09 03:56:48;;;;;;;;;;;-0.60;99.90;;;-2.19;100.00;94428.34;10520929;28;2386;-64
2022/12/09 04:01:51;;;;;;;;;;;-1.00;99.90;;;-2.25;100.00;94421.38;10501514;28;2056;-65
2022/12/09 04:06:54;;;;;;;;;;;-1.00;99.90;;;-2.36;100.00;94422.16;10516663;28;2012;-66
2022/12/09 04:11:57;;;;;;;;;;;-1.10;99.90;;;-2.39;100.00;94430.50;10510466;28;2138;-68
2022/12/09 04:17:00;;;;;;;;;;;-1.20;99.90;;;-2.37;100.00;94427.63;10504620;28;2403;-64
2022/12/09 04:22:03;;;;;;;;;;;-1.20;99.90;;;-2.27;100.00;94420.81;10510745;28;2041;-65
2022/12/09 04:27:06;;;;;;;;;;;-1.10;99.90;;;-2.27;100.00;94410.28;10528978;28;2070;-64
2022/12/09 04:32:10;;;;;;;;;;;-1.10;99.90;;;-2.39;100.00;94409.44;10529186;28;2127;-66
2022/12/09 04:37:14;;;;;;;;;;;-1.10;99.90;;;-2.21;100.00;94398.03;10511310;28;2070;-66
2022/12/09 04:42:16;;;;;;;;;;;-1.10;99.90;;;-2.25;100.00;94387.16;10511346;28;2032;-65
2022/12/09 04:47:19;;;;;;;;;;;-1.10;99.90;;;-2.34;100.00;94374.56;10494174;28;2125;-68
2022/12/09 04:52:22;;;;;;;;;;;-1.10;99.90;;;-2.50;100.00;94368.13;10512999;28;2137;-65
2022/12/09 04:57:25;;;;;;;;;;;-1.20;99.90;;;-2.43;100.00;94376.72;10510965;28;2055;-67
2022/12/09 05:02:28;;;;;;;;;;;;;;;-2.55;100.00;94381.94;10507913;28;2071;-71
2022/12/09 05:07:32;;;;;;;;;;;;;;;-2.46;100.00;94369.28;10516982;28;2017;-67
2022/12/09 05:12:36;;;;;;;;;;;;;;;-2.32;100.00;94365.41;10515564;28;2017;-66
2022/12/09 05:17:40;;;;;;;;;;;;;;;-2.25;100.00;94360.03;10507763;28;2066;-66
2022/12/09 05:22:43;;;;;;;;;;;;;;;-2.14;100.00;94366.34;10510691;28;1943;-67
2022/12/09 05:27:47;;;;;;;;;;;;;;;-1.97;100.00;94367.25;10503347;28;2082;-66
2022/12/09 05:32:50;;;;;;;;;;;;;;;-2.08;100.00;94358.31;10506990;28;2375;-66
2022/12/09 05:37:54;;;;;;;;;;;;;;;-2.20;100.00;94357.50;10508985;28;2004;-66
2022/12/09 05:42:58;;;;;;;;;;;;;;;-2.15;100.00;94346.31;10513935;28;2171;-66
2022/12/09 05:48:02;;;;;;;;;;;;;;;-2.19;100.00;94343.31;10505244;28;2068;-66
2022/12/09 05:53:06;;;;;;;;;;;;;;;-2.25;100.00;94345.03;10497829;28;2065;-66
2022/12/09 05:58:09;;;;;;;;;;;;;;;-2.18;100.00;94332.56;10500698;28;2062;-67
2022/12/09 06:03:13;;;;;;;;;;;;;;;-2.22;100.00;94336.69;10501266;28;2038;-70
2022/12/09 06:08:16;;;;;;;;;;;;;;;-2.07;100.00;94336.22;10516561;28;2060;-76
2022/12/09 06:13:20;;;;;;;;;;;;;;;-2.05;100.00;94333.34;10509372;28;2195;-68
2022/12/09 06:18:23;;;;;;;;;;;;;;;-2.07;100.00;94330.97;10499973;28;2089;-66
2022/12/09 06:23:27;;;;;;;;;;;;;;;-2.09;100.00;94319.88;10499944;28;2081;-66
2022/12/09 06:28:31;;;;;;;;;;;;;;;-2.05;100.00;94312.28;10502300;28;2129;-69
2022/12/09 06:33:34;;;;;;;;;;;;;;;-1.99;100.00;94306.09;10514459;28;2089;-66
2022/12/09 06:38:57;;;;;;;;;;;;;;;-2.18;100.00;94308.88;10499773;28;2079;-66
2022/12/09 06:44:09;;;;;;;;;;;;;;;-2.33;100.00;94300.63;10508124;28;2033;-64
2022/12/09 06:49:13;;;;;;;;;;;;;;;-2.22;100.00;94297.22;10516781;28;2027;-65
2022/12/09 06:54:16;;;;;;;;;;;;;;;-2.02;100.00;94290.78;10508229;28;2176;-67
2022/12/09 06:59:20;;;;;;;;;;;;;;;-2.11;100.00;94286.88;10507905;28;1976;-66
2022/12/09 07:04:24;;;;;;;;;;;;;;;-2.11;100.00;94287.69;10505164;28;1989;-72
2022/12/09 07:09:28;;;;;;;;;;;;;;;-1.91;100.00;94276.75;10482656;28;2000;-64
2022/12/09 07:14:31;;;;;;;;;;;;;;;-1.95;100.00;94294.09;10495141;28;2114;-66
2022/12/09 07:19:35;;;;;;;;;;;;;;;-1.88;100.00;94309.75;10502410;28;2005;-70
2022/12/09 07:24:39;;;;;;;;;;;;;;;-1.89;100.00;94316.06;10509401;28;2120;-73
2022/12/09 07:29:49;;;;;;;;;;;;;;;-1.74;100.00;94304.00;10514798;28;2042;-72
2022/12/09 07:34:53;;;;;;;;;;;;;;;-1.83;100.00;94309.88;10501597;28;2097;-68
2022/12/09 07:39:56;;;;;;;;;;;;;;;-1.88;100.00;94281.59;10512396;28;2050;-66
2022/12/09 07:45:00;;;;;;;;;;;;;;;-1.93;100.00;94281.47;10514172;28;2084;-68
2022/12/09 07:50:03;;;;;;;;;;;;;;;-1.75;100.00;94270.78;10497590;28;2132;-65
2022/12/09 07:55:09;;;;;;;;;;;;;;;-1.75;100.00;94275.25;10483629;28;2056;-65
2022/12/09 08:00:13;;;;;;;;;;;;;;;-1.69;100.00;94290.91;10500446;28;2025;-65
2022/12/09 08:05:16;;;;;;;;;;;;;;;-1.71;100.00;94279.81;10508136;28;2326;-69
2022/12/09 08:10:20;;;;;;;;;;;;;;;-1.36;100.00;94284.97;10498208;28;2090;-65
2022/12/09 08:15:24;;;;;;;;;;;;;;;-1.45;100.00;94289.03;10499510;28;1978;-67
2022/12/09 08:20:27;;;;;;;;;;;;;;;-1.28;100.00;94273.22;10495435;28;2128;-67
2022/12/09 08:25:39;;;;;;;;;;;;;;;-1.48;100.00;94249.16;10507428;28;1955;-66
2022/12/09 08:30:43;;;;;;;;;;;;;;;-1.51;100.00;94275.97;10513048;28;2181;-66
2022/12/09 08:35:46;;;;;;;;;;;;;;;-1.30;100.00;94272.66;10509421;28;2068;-66
2022/12/09 08:40:50;;;;;;;;;;;;;;;-1.18;100.00;94270.78;10506962;28;2051;-67
2022/12/09 08:45:53;;;;;;;;;;;;;;;-1.16;100.00;94258.16;10504366;28;2120;-68
2022/12/09 08:50:57;;;;;;;;;;;;;;;-1.11;100.00;94249.53;10516395;28;2102;-65
2022/12/09 08:56:00;;;;;;;;;;;;;;;-0.93;100.00;94235.34;10505748;28;2082;-66
2022/12/09 09:01:08;;;;;;;;;;;;;;;-1.04;100.00;94230.91;10503753;28;2136;-66
2022/12/09 09:06:11;;;;;;;;;;;;;;;-1.11;100.00;94239.78;10510083;28;1960;-66
2022/12/09 09:11:15;;;;;;;;;;;;;;;-1.09;100.00;94250.88;10505494;28;2028;-66
2022/12/09 09:16:19;;;;;;;;;;;;;;;-1.27;100.00;94247.66;10509362;28;2012;-69
2022/12/09 09:21:22;;;;;;;;;;;;;;;-1.19;100.00;94268.38;10500573;28;2390;-66
2022/12/09 09:26:26;;;;;;;;;;;;;;;-1.00;100.00;94261.88;10513626;28;2053;-70
2022/12/09 09:31:30;;;;;;;;;;;;;;;-1.10;100.00;94246.66;10506557;28;2039;-77
2022/12/09 09:36:35;;;;;;;;;;;;;;;-0.95;100.00;94243.50;10502893;28;2128;-65
2022/12/09 09:41:38;;;;;;;;;;;;;;;-1.13;100.00;94255.06;10507933;28;2069;-65
2022/12/09 09:46:42;;;;;;;;;;;;;;;-0.97;100.00;94240.28;10506667;28;2110;-66
2022/12/09 09:51:46;;;;;;;;;;;;;;;-1.09;100.00;94221.06;10507797;28;2171;-66
2022/12/09 09:56:53;;;;;;;;;;;;;;;-0.90;100.00;94224.28;10515471;28;2092;-66
2022/12/09 10:01:57;;;;;;;;;;;;;;;-0.96;100.00;94212.06;10504950;28;1988;-65
2022/12/09 10:07:01;;;;;;;;;;;;;;;-1.02;100.00;94191.91;10508631;28;2081;-66
2022/12/09 10:12:09;;;;;;;;;;;;;;;-0.69;100.00;94193.75;10491877;28;2086;-67
2022/12/09 10:17:13;;;;;;;;;;;;;;;-0.91;100.00;94177.84;10502799;28;1989;-66
2022/12/09 10:22:16;;;;;;;;;;;;;;;-0.85;100.00;94187.44;10500789;28;1954;-66
2022/12/09 10:27:21;;;;;;;;;;;;;;;-0.94;100.00;94188.91;10503249;28;3277;-65
2022/12/09 10:32:25;;;;;;;;;;;;;;;-0.96;100.00;94186.47;10503931;28;2036;-65
2022/12/09 10:37:28;;;;;;;;;;;;;;;-0.71;100.00;94175.50;10507572;28;2117;-65
2022/12/09 10:47:53;;;;;;;;;;;;;;;-0.69;100.00;94162.88;10483887;28;2062;-65
2022/12/09 10:52:57;;;;;;;;;;;;;;;-0.63;100.00;94167.19;10500343;28;2081;-69
2022/12/09 10:58:00;;;;;;;;;;;;;;;-0.68;100.00;94158.41;10503535;28;2063;-65
2022/12/09 11:03:04;;;;;;;;;;;;;;;-0.36;100.00;94146.16;10492080;28;2075;-67
2022/12/09 11:08:07;;;;;;;;;;;;;;;-0.36;100.00;94140.88;10508061;28;2047;-67
2022/12/09 11:13:11;;;;;;;;;;;;;;;-0.61;100.00;94133.44;10496005;28;2068;-66
2022/12/09 11:18:14;;;;;;;;;;;;;;;-0.36;100.00;94119.75;10497399;28;2268;-67
2022/12/09 11:23:18;;;;;;;;;;;;;;;-0.20;100.00;94107.50;10508429;28;1978;-68
2022/12/09 11:28:21;;;;;;;;;;;;;;;-0.20;100.00;94107.50;10500590;28;2137;-66
2022/12/09 11:33:25;;;;;;;;;;;;;;;-0.13;100.00;94097.56;10497218;28;2361;-68
2022/12/09 11:38:29;;;;;;;;;;;;;;;-0.16;100.00;94090.13;10499486;28;2286;-67
2022/12/09 11:43:32;;;;;;;;;;;;;;;-0.22;100.00;94077.94;10503797;28;2087;-64
2022/12/09 11:48:35;;;;;;;;;;;;;;;-0.29;100.00;94080.75;10509742;28;2167;-66
2022/12/09 11:53:45;;;;;;;;;;;;;;;-0.26;100.00;94074.19;10501114;28;2075;-66
2022/12/09 11:58:48;;;;;;;;;;;;;;;-0.18;100.00;94073.75;10512748;28;2066;-66
2022/12/09 12:03:52;;;;;;;;;;;;;;;-0.12;100.00;94077.25;10513352;28;2022;-68
2022/12/09 12:08:55;;;;;;;;;;;;;;;-0.02;100.00;94074.69;10511966;28;2094;-66
2022/12/09 12:13:58;;;;;;;;;;;;;;;0.21;100.00;94063.03;10507174;28;2078;-66
2022/12/09 12:19:01;;;;;;;;;;;;;;;-0.03;100.00;94060.69;10503412;28;1979;-65
2022/12/09 12:24:05;;;;;;;;;;;;;;;0.05;100.00;94062.06;10503791;28;2264;-67
2022/12/09 12:29:09;;;;;;;;;;;;;;;0.25;100.00;94064.94;10506742;28;2141;-66
2022/12/09 12:34:13;;;;;;;;;;;;;;;0.03;100.00;94052.81;10506401;28;2132;-65
2022/12/09 12:39:27;;;;;;;;;;;;;;;-0.27;100.00;94060.19;10517740;28;1977;-66
2022/12/09 12:49:51;;;;;;;;;;;;;;;0.03;100.00;94058.09;10510654;28;1994;-70
2022/12/09 12:54:54;;;;;;;;;;;;;;;-0.20;100.00;94069.75;10505278;28;2058;-68
2022/12/09 12:59:57;;;;;;;;;;;;;;;-0.34;100.00;94064.84;10505894;28;2129;-65
2022/12/09 13:05:02;;;;;;;;;;;;;;;-0.47;100.00;94053.88;10507659;28;2088;-66
2022/12/09 13:10:06;;;;;;;;;;;;;;;-0.20;100.00;94054.69;10504128;28;2031;-68
2022/12/09 13:15:09;;;;;;;;;;;;;;;-0.06;100.00;94045.34;10510614;28;2012;-68
2022/12/09 13:20:13;;;;;;;;;;;;;;;-0.35;100.00;94041.34;10500438;28;2030;-69
2022/12/09 13:25:16;;;;;;;;;;;;;;;-0.33;100.00;94039.25;10507354;28;2043;-67
2022/12/09 13:30:19;;;;;;;;;;;;;;;-0.21;100.00;94047.03;10506582;28;1962;-68
2022/12/09 13:35:22;;;;;;;;;;;;;;;-0.18;100.00;94051.84;10505309;28;2493;-67
2022/12/09 13:40:26;;;;;;;;;;;;;;;-0.25;100.00;94057.31;10504436;28;1990;-66
2022/12/09 13:45:29;;;;;;;;;;;;;;;-0.27;100.00;94054.91;10501181;28;2080;-67
2022/12/09 13:50:32;;;;;;;;;;;;;;;-0.46;100.00;94056.28;10499675;28;2136;-66
2022/12/09 13:55:36;;;;;;;;;;;;;;;-0.42;100.00;94059.22;10508157;28;2057;-67
2022/12/09 14:00:39;;;;;;;;;;;;;;;-0.62;100.00;94065.88;10505787;28;2051;-69
2022/12/09 14:05:42;;;;;;;;;;;;;;;-0.57;100.00;94060.66;10511241;28;2001;-66
2022/12/09 14:10:46;;;;;;;;;;;;;;;-0.60;100.00;94065.63;10503015;28;2031;-66
2022/12/09 14:15:50;;;;;;;;;;;;;;;-0.59;100.00;94068.00;10504335;28;2185;-70
2022/12/09 14:20:53;;;;;;;;;;;;;;;-0.62;100.00;94079.06;10504813;28;2212;-67
2022/12/09 14:25:56;;;;;;;;;;;;;;;-0.58;100.00;94077.50;10495755;28;2012;-70
2022/12/09 14:31:00;;;;;;;;;;;;;;;-0.48;100.00;94087.41;10500947;28;2047;-68
2022/12/09 14:36:10;;;;;;;;;;;;;;;-0.53;100.00;94103.16;10520106;28;2013;-70
2022/12/09 14:41:16;;;;;;;;;;;;;;;-0.42;100.00;94098.81;10502556;28;2207;-71
2022/12/09 14:46:19;;;;;;;;;;;;;;;-0.55;100.00;94095.50;10506280;28;1913;-64
2022/12/09 14:51:23;;;;;;;;;;;;;;;-0.56;100.00;94099.19;10503980;28;1946;-65
2022/12/09 14:56:26;;;;;;;;;;;;;;;-0.61;100.00;94098.31;10504479;28;1956;-66
2022/12/09 15:01:29;;;;;;;;;;;;;;;-0.65;100.00;94100.66;10501655;28;2488;-65
2022/12/09 15:06:33;;;;;;;;;;;;;;;-0.57;100.00;94105.53;10504920;28;1996;-64
2022/12/09 15:11:38;;;;;;;;;;;;;;;-0.61;100.00;94103.59;10511120;28;2100;-66
2022/12/09 15:16:41;;;;;;;;;;;;;;;-0.80;100.00;94116.28;10504953;28;1984;-64
2022/12/09 15:21:51;;;;;;;;;;;;;;;-0.70;100.00;94129.63;10510866;28;2028;-64
2022/12/09 15:26:54;;;;;;;;;;;;;;;-0.74;100.00;94132.97;10506365;28;2044;-66
2022/12/09 15:31:58;;;;;;;;;;;;;;;-0.72;100.00;94121.13;10514922;28;2017;-65
2022/12/09 15:37:01;;;;;;;;;;;;;;;-0.61;100.00;94125.50;10521259;28;2099;-68
2022/12/09 15:42:09;;;;;;;;;;;;;;;-0.49;100.00;94129.88;10510573;28;2031;-64
2022/12/09 15:47:12;;;;;;;;;;;;;;;-0.68;100.00;94132.00;10510475;28;1925;-67
2022/12/09 15:52:16;;;;;;;;;;;;;;;-0.71;100.00;94124.56;10514943;28;2077;-66
2022/12/09 15:57:19;;;;;;;;;;;;;;;-0.70;100.00;94126.16;10517887;28;2043;-65
2022/12/09 16:02:22;;;;;;;;;;;;;;;-0.56;100.00;94125.59;10516522;28;2058;-68
2022/12/09 16:07:26;;;;;;;;;;;;;;;-0.59;100.00;94119.97;10520166;28;1972;-71
2022/12/09 16:12:30;;;;;;;;;;;;;;;-0.66;100.00;94138.63;10510141;28;2135;-72
2022/12/09 16:17:34;;;;;;;;;;;;;;;-0.52;100.00;94144.34;10503596;28;2057;-65
2022/12/09 16:22:37;;;;;;;;;;;;;;;-0.51;100.00;94142.50;10511348;28;2179;-65
2022/12/09 16:27:40;;;;;;;;;;;;;;;-0.66;100.00;94141.28;10512596;28;2073;-65
2022/12/09 16:32:43;;;;;;;;;;;;;;;-0.65;100.00;94142.06;10506878;28;2077;-66
2022/12/09 16:37:51;;;;;;;;;;;;;;;-0.57;100.00;94145.09;10508859;28;2089;-66
2022/12/09 16:42:54;;;;;;;;;;;;;;;-0.50;100.00;94155.50;10505231;28;2076;-67
2022/12/09 16:47:58;;;;;;;;;;;;;;;-0.40;100.00;94157.44;10508170;28;2205;-65
2022/12/09 16:53:06;;;;;;;;;;;;;;;-0.44;100.00;94159.00;10544950;27;2051;-65
2022/12/09 16:58:09;;;;;;;;;;;;;;;-0.47;100.00;94168.19;10505655;28;1980;-67
2022/12/09 17:03:12;;;;;;;;;;;;;;;-0.49;100.00;94172.91;10509633;28;2054;-66
2022/12/09 17:08:15;;;;;;;;;;;;;;;-0.65;100.00;94174.53;10508105;28;2063;-66
2022/12/09 17:13:18;;;;;;;;;;;;;;;-0.70;100.00;94176.28;10537169;27;2051;-67
2022/12/09 17:18:21;;;;;;;;;;;;;;;-0.60;100.00;94187.00;10510802;28;2040;-65
2022/12/09 17:23:25;;;;;;;;;;;;;;;-0.65;100.00;94195.66;10505487;28;2363;-66
2022/12/09 17:28:28;;;;;;;;;;;;;;;-0.59;100.00;94184.13;10511415;28;2295;-65
2022/12/09 17:33:32;;;;;;;;;;;;;;;-0.42;100.00;94199.94;10509418;28;2711;-67
2022/12/09 17:38:35;;;;;;;;;;;;;;;-0.35;100.00;94205.03;10503021;28;2289;-67
2022/12/09 17:43:39;;;;;;;;;;;;;;;-0.32;100.00;94215.09;10513288;28;2332;-67
2022/12/09 17:48:45;;;;;;;;;;;;;;;-0.39;100.00;94210.00;10505514;28;2344;-68
2022/12/09 17:53:49;;;;;;;;;;;;;;;-0.49;100.00;94222.28;10505997;28;1878;-67
2022/12/09 17:58:53;;;;;;;;;;;;;;;-0.43;100.00;94229.22;10509243;28;1954;-67
2022/12/09 18:03:57;;;;;;;;;;;;;;;-0.30;100.00;94228.88;10507517;28;2270;-67
2022/12/09 18:09:07;;;;;;;;;;;;;;;-0.28;100.00;94237.34;10510833;28;2328;-65
2022/12/09 18:14:10;;;;;;;;;;;;;;;-0.29;100.00;94238.38;10517139;28;2065;-66
2022/12/09 18:19:14;;;;;;;;;;;;;;;-0.28;100.00;94243.41;10499982;28;2481;-67
2022/12/09 18:24:21;;;;;;;;;;;;;;;-0.33;100.00;94261.81;10504074;28;2484;-65
2022/12/09 18:29:24;;;;;;;;;;;;;;;-0.23;100.00;94266.47;10500543;28;2392;-66
2022/12/09 18:34:31;;;;;;;;;;;;;;;-0.20;100.00;94260.69;10491962;28;2270;-66
2022/12/09 18:39:35;;;;;;;;;;;;;;;-0.21;100.00;94259.09;10504644;28;2318;-68
2022/12/09 18:44:39;;;;;;;;;;;;;;;-0.12;100.00;94252.38;10493469;28;2353;-65
2022/12/09 18:49:45;;;;;;;;;;;;;;;-0.13;100.00;94268.44;10499703;28;2319;-66
2022/12/09 18:54:48;;;;;;;;;;;;;;;-0.12;100.00;94268.22;10505207;28;2336;-65
2022/12/09 18:59:52;;;;;;;;;;;;;;;-0.14;100.00;94270.28;10508019;28;2334;-68
2022/12/09 19:04:55;;;;;;;;;;;;;;;-0.17;100.00;94268.13;10501089;28;2314;-65
2022/12/09 19:09:58;;;;;;;;;;;;;;;-0.14;100.00;94265.00;10503957;28;2372;-65
2022/12/09 19:15:01;;;;;;;;;;;;;;;-0.11;100.00;94258.44;10498279;28;2274;-74
2022/12/09 19:20:04;;;;;;;;;;;;;;;-0.08;100.00;94242.88;10500499;28;2354;-76
2022/12/09 19:25:08;;;;;;;;;;;;;;;-0.07;100.00;94248.97;10480828;28;2401;-72
2022/12/09 19:30:12;;;;;;;;;;;;;;;-0.19;100.00;94253.56;10508793;28;2334;-66
2022/12/09 19:35:15;;;;;;;;;;;;;;;-0.18;100.00;94274.47;10498895;28;2440;-66
2022/12/09 19:40:18;;;;;;;;;;;;;;;-0.05;100.00;94282.03;10500391;28;2340;-66
2022/12/09 19:45:21;;;;;;;;;;;;;;;0.02;100.00;94289.00;10494598;28;2330;-66
2022/12/09 19:50:25;;;;;;;;;;;;;;;-0.04;100.00;94286.28;10502926;28;2399;-65
2022/12/09 19:55:28;;;;;;;;;;;;;;;0.10;100.00;94289.34;10502035;28;2348;-68
2022/12/09 20:00:31;;;;;;;;;;;;;;;0.15;100.00;94292.06;10502636;28;2338;-68
2022/12/09 20:05:41;;;;;;;;;;;;;;;0.18;100.00;94285.50;10495849;28;2342;-66
2022/12/09 20:10:44;;;;;;;;;;;;;;;0.19;100.00;94276.50;10501757;28;1968;-66
2022/12/09 20:15:48;;;;;;;;;;;;;;;0.16;100.00;94277.00;10505050;28;2297;-67
2022/12/09 20:20:51;;;;;;;;;;;;;;;-0.10;100.00;94273.25;10514353;28;2284;-65
2022/12/09 20:25:58;;;;;;;;;;;;;;;-0.11;100.00;94285.66;10500885;28;2349;-69
2022/12/09 20:31:01;;;;;;;;;;;;;;;-0.06;100.00;94306.84;10509152;28;2351;-66
2022/12/09 20:36:04;;;;;;;;;;;;;;;0.05;100.00;94314.91;10498937;28;2131;-66
2022/12/09 20:41:08;;;;;;;;;;;;;;;0.10;100.00;94299.13;10516523;28;2345;-66
2022/12/09 20:46:12;;;;;;;;;;;;;;;0.17;100.00;94273.31;10504370;28;2239;-66
2022/12/09 20:51:15;;;;;;;;;;;;;;;0.10;100.00;94284.06;10504247;28;2275;-67
2022/12/09 20:56:18;;;;;;;;;;;;;;;0.17;100.00;94279.41;10509736;28;2265;-70
2022/12/09 21:01:22;;;;;;;;;;;;;;;0.11;100.00;94295.44;10492148;28;2345;-74
2022/12/09 21:06:25;;;;;;;;;;;;;;;0.12;100.00;94305.75;10510264;28;2303;-66
2022/12/09 21:11:31;;;;;;;;;;;1.10;99.90;;;0.16;100.00;94317.44;10512264;28;2298;-68
2022/12/09 21:16:34;;;;;;;;;;;1.20;99.90;;;0.11;100.00;94320.00;10510595;28;2348;-65
2022/12/09 21:21:37;;;;;;;;;;;1.20;99.90;;;0.12;100.00;94318.16;10505615;28;2026;-67
2022/12/09 21:26:40;;;;;;;;;;;1.40;99.90;;;0.34;100.00;94318.22;10505223;28;2320;-65
2022/12/09 21:31:42;;;;;;;;;;;1.30;99.90;;;0.30;100.00;94320.53;10507034;28;2006;-66
2022/12/09 21:36:45;;;;;;;;;;;1.40;99.90;;;0.32;100.00;94304.41;10501373;28;1963;-66
2022/12/09 21:41:48;;;;;;;;;;;1.40;99.90;;;0.19;100.00;94322.25;10503810;28;2286;-65
2022/12/09 21:46:51;;;;;;;;;;;1.40;99.90;;;0.34;100.00;94321.66;10506486;28;1990;-67
2022/12/09 21:51:53;;;;;;;;;;;1.30;99.90;;;0.30;100.00;94332.94;10517882;28;2332;-66
2022/12/09 21:56:56;;;;;;;;;;;1.60;99.90;;;0.30;100.00;94332.94;10532486;28;2373;-65
2022/12/09 22:01:59;;;;;;;;;;;1.40;99.90;;;0.37;100.00;94329.06;10517471;28;2398;-67
2022/12/09 22:07:02;;;;;;;;;;;1.40;99.90;;;0.44;100.00;94328.88;10506209;28;2283;-67
2022/12/09 22:12:04;;;;;;;;;;;2.00;99.90;;;0.35;100.00;94330.38;10502590;28;2319;-66
2022/12/09 22:17:07;;;;;;;;;;;1.50;99.90;;;0.18;100.00;94331.22;10501301;28;2343;-67
2022/12/09 22:22:10;;;;;;;;;;;1.40;99.90;;;0.09;100.00;94337.16;10543858;27;2380;-69
2022/12/09 22:27:12;;;;;;;;;;;1.30;99.90;;;0.04;100.00;94329.97;10508211;28;2303;-75
2022/12/09 22:32:15;;;;;;;;;;;1.20;99.90;;;0.21;100.00;94325.44;10504960;28;2464;-74
2022/12/09 22:37:18;;;;;;;;;;;1.30;99.90;;;0.29;100.00;94326.06;10509563;28;2305;-66
2022/12/09 22:42:41;;;;;;;;;;;1.30;99.90;;;0.33;100.00;94320.06;10509273;28;2625;-66
2022/12/09 22:47:43;;;;;;;;;;;1.40;99.90;;;0.31;100.00;94305.47;10508062;28;2405;-66
2022/12/09 22:52:46;;;;;;;;;;;1.40;99.90;;;0.21;100.00;94303.50;10500472;28;2341;-68
2022/12/09 22:57:50;;;;;;;;;;;1.40;99.90;;;0.15;100.00;94307.13;10541413;27;2424;-67
2022/12/09 23:02:53;;;;;;;;;;;1.30;99.90;;;-0.08;100.00;94306.28;10498885;28;2080;-67
2022/12/09 23:07:56;;;;;;;;;;;1.20;99.90;;;0.04;100.00;94323.88;10491291;28;2306;-67
2022/12/09 23:12:59;;;;;;;;;;;1.10;99.90;;;0.08;100.00;94314.44;10502567;28;1954;-67
2022/12/09 23:18:01;;;;;;;;;;;1.10;99.90;;;0.05;100.00;94330.75;10499515;28;2335;-66
2022/12/09 23:23:04;;;;;;;;;;;1.20;99.90;;;0.11;100.00;94340.34;10498369;28;2349;-65
2022/12/09 23:28:06;;;;;;;;;;;1.10;99.90;;;0.06;100.00;94353.50;10495690;28;2330;-66
2022/12/09 23:33:09;;;;;;;;;;;1.20;99.90;;;0.13;100.00;94343.56;10509206;28;2326;-66
2022/12/09 23:38:11;;;;;;;;;;;1.20;99.90;;;0.21;100.00;94345.78;10511661;28;2229;-72
2022/12/09 23:43:14;;;;;;;;;;;0.50;99.90;;;0.18;100.00;94325.13;10504100;28;2314;-65
2022/12/09 23:48:17;;;;;;;;;;;1.30;99.90;;;0.18;100.00;94333.06;10500221;28;2051;-65
2022/12/09 23:53:20;;;;;;;;;;;1.30;99.90;;;0.07;100.00;94326.06;10522008;28;1978;-65
2022/12/09 23:58:22;;;;;;;;;;;1.60;99.90;;;0.11;100.00;94345.63;10509136;28;2368;-67
